createdAt,value
2022-12-22T00:02:33.142Z,97569.00
2022-12-22T00:06:55.357Z,97574.34
2022-12-22T00:11:16.185Z,97570.38
2022-12-22T00:15:37.537Z,97562.84
2022-12-22T00:19:58.281Z,97554.88
2022-12-22T00:24:20.417Z,97548.09
2022-12-22T00:28:41.371Z,97553.81
2022-12-22T00:33:02.529Z,97565.41
2022-12-22T00:37:23.826Z,97554.22
2022-12-22T00:41:45.848Z,97557.97
2022-12-22T00:46:07.010Z,97567.81
2022-12-22T00:50:28.749Z,97537.16
2022-12-22T00:54:49.524Z,97544.31
2022-12-22T00:59:15.700Z,97539.28
2022-12-22T01:03:36.472Z,97531.22
2022-12-22T01:07:56.937Z,97528.97
2022-12-22T01:12:17.764Z,97532.88
2022-12-22T01:16:39.778Z,97534.16
2022-12-22T01:21:00.753Z,97523.84
2022-12-22T01:25:21.297Z,97510.50
2022-12-22T01:29:41.789Z,97515.88
2022-12-22T01:34:04.463Z,97518.00
2022-12-22T01:38:25.121Z,97511.47
2022-12-22T01:42:46.312Z,97497.06
2022-12-22T01:47:07.076Z,97497.16
2022-12-22T01:51:33.772Z,97491.34
2022-12-22T01:55:54.685Z,97471.22
2022-12-22T02:00:15.198Z,97470.16
2022-12-22T02:04:37.934Z,97494.84
2022-12-22T02:09:03.867Z,97493.44
2022-12-22T02:13:38.461Z,97485.34
2022-12-22T02:18:09.965Z,97468.53
2022-12-22T02:22:39.461Z,97472.94
2022-12-22T02:27:05.016Z,97475.06
2022-12-22T02:31:26.171Z,97480.19
2022-12-22T02:35:55.456Z,97452.75
2022-12-22T02:40:21.216Z,97443.38
2022-12-22T02:44:59.269Z,97446.06
2022-12-22T02:49:24.742Z,97442.19
2022-12-22T02:53:47.920Z,97431.22
2022-12-22T02:58:09.724Z,97430.75
2022-12-22T03:02:32.630Z,97434.50
2022-12-22T03:06:53.693Z,97425.38
2022-12-22T03:11:14.783Z,97422.81
2022-12-22T03:15:35.348Z,97426.28
2022-12-22T03:19:58.306Z,97420.22
2022-12-22T03:24:19.306Z,97411.47
2022-12-22T03:28:23.895Z,97406.91
2022-12-22T03:32:27.322Z,97409.34
2022-12-22T03:36:32.282Z,97416.03
2022-12-22T03:40:35.725Z,97413.25
2022-12-22T03:44:56.379Z,97406.44
2022-12-22T03:49:11.884Z,97404.09
2022-12-22T03:53:16.666Z,97403.41
2022-12-22T03:57:19.645Z,97407.94
2022-12-22T04:01:23.238Z,97402.25
2022-12-22T04:05:26.620Z,97402.34
2022-12-22T04:09:31.358Z,97393.09
2022-12-22T04:13:35.229Z,97380.75
2022-12-22T04:17:38.529Z,97385.16
2022-12-22T04:21:41.867Z,97371.75
2022-12-22T04:25:46.340Z,97387.28
2022-12-22T04:29:49.728Z,97393.31
2022-12-22T04:33:53.300Z,97374.66
2022-12-22T04:37:56.910Z,97371.38
2022-12-22T04:42:01.374Z,97384.00
2022-12-22T04:46:04.814Z,97387.28
2022-12-22T04:50:09.290Z,97381.88
2022-12-22T04:54:12.742Z,97366.13
2022-12-22T04:58:17.942Z,97358.06
2022-12-22T05:02:21.245Z,97354.53
2022-12-22T05:06:25.021Z,97365.53
2022-12-22T05:10:28.371Z,97363.56
2022-12-22T05:14:33.570Z,97369.16
2022-12-22T05:18:37.533Z,97351.78
2022-12-22T05:22:41.169Z,97354.78
2022-12-22T05:26:44.758Z,97349.19
2022-12-22T05:30:49.905Z,97345.19
2022-12-22T05:34:53.202Z,97354.78
2022-12-22T05:38:56.877Z,97354.31
2022-12-22T05:43:00.188Z,97364.56
2022-12-22T05:47:05.341Z,97354.50
2022-12-22T05:51:10.424Z,97355.66
2022-12-22T05:55:14.378Z,97337.75
2022-12-22T05:59:18.073Z,97360.91
2022-12-22T06:03:24.112Z,97354.44
2022-12-22T06:07:27.510Z,97366.00
2022-12-22T06:11:31.075Z,97368.94
2022-12-22T06:15:34.368Z,97373.56
2022-12-22T06:19:39.560Z,97376.59
2022-12-22T06:23:42.974Z,97389.34
2022-12-22T06:27:46.542Z,97378.81
2022-12-22T06:31:50.010Z,97394.50
2022-12-22T06:35:58.907Z,97363.72
2022-12-22T06:40:03.187Z,97376.03
2022-12-22T06:44:07.144Z,97382.94
2022-12-22T06:48:12.648Z,97390.56
2022-12-22T06:52:17.497Z,97396.38
2022-12-22T06:56:21.191Z,97398.81
2022-12-22T07:00:25.153Z,97416.63
2022-12-22T07:04:30.475Z,97439.31
2022-12-22T07:08:35.392Z,97423.50
2022-12-22T07:12:39.222Z,97430.84
2022-12-22T07:16:42.864Z,97416.53
2022-12-22T07:20:46.396Z,97417.59
2022-12-22T07:24:51.805Z,97372.16
2022-12-22T07:28:55.459Z,97363.63
2022-12-22T07:32:58.976Z,97346.78
2022-12-22T07:37:02.731Z,97358.47
2022-12-22T07:41:29.653Z,97372.50
2022-12-22T07:45:34.540Z,97388.16
2022-12-22T07:49:55.429Z,97388.34
2022-12-22T07:53:58.735Z,97401.44
2022-12-22T07:58:03.728Z,97406.63
2022-12-22T08:02:07.277Z,97395.25
2022-12-22T08:06:10.764Z,97396.94
2022-12-22T08:10:14.440Z,97400.78
2022-12-22T08:14:19.163Z,97369.84
2022-12-22T08:18:22.829Z,97355.31
2022-12-22T08:22:26.719Z,97340.50
2022-12-22T08:26:36.663Z,97330.16
2022-12-22T08:30:41.557Z,97330.41
2022-12-22T08:34:45.309Z,97323.38
2022-12-22T08:38:49.114Z,97332.22
2022-12-22T08:42:56.990Z,97336.59
2022-12-22T08:47:02.123Z,97327.78
2022-12-22T08:51:05.903Z,97339.69
2022-12-22T08:55:11.012Z,97335.00
2022-12-22T08:59:14.553Z,97359.53
2022-12-22T09:03:19.804Z,97348.00
2022-12-22T09:07:23.404Z,97367.19
2022-12-22T09:11:27.332Z,97374.00
2022-12-22T09:15:30.878Z,97359.31
2022-12-22T09:19:35.879Z,97352.53
2022-12-22T09:23:39.421Z,97342.47
2022-12-22T09:27:43.025Z,97316.09
2022-12-22T09:31:46.265Z,97325.59
2022-12-22T09:35:51.452Z,97329.41
2022-12-22T09:39:54.969Z,97317.72
2022-12-22T09:43:59.123Z,97300.75
2022-12-22T09:48:04.087Z,97296.13
2022-12-22T09:52:22.749Z,97286.47
2022-12-22T09:56:27.988Z,97295.84
2022-12-22T10:00:31.669Z,97294.63
2022-12-22T10:04:47.772Z,97259.72
2022-12-22T10:08:56.030Z,97276.13
2022-12-22T10:13:01.750Z,97250.31
2022-12-22T10:17:25.373Z,97269.06
2022-12-22T10:21:29.519Z,97259.41
2022-12-22T10:26:17.017Z,97265.97
2022-12-22T10:30:21.671Z,97258.09
2022-12-22T10:34:25.762Z,97256.06
2022-12-22T10:38:34.332Z,97242.72
2022-12-22T10:42:39.311Z,97250.50
2022-12-22T10:46:46.259Z,97257.16
2022-12-22T10:50:51.303Z,97237.31
2022-12-22T10:54:55.051Z,97251.16
2022-12-22T10:59:20.333Z,97245.47
2022-12-22T11:03:31.175Z,97252.53
2022-12-22T11:07:36.217Z,97230.53
2022-12-22T11:11:44.567Z,97232.97
2022-12-22T11:15:55.910Z,97232.84
2022-12-22T11:20:29.606Z,97229.97
2022-12-22T11:24:42.059Z,97242.72
2022-12-22T11:28:59.101Z,97232.69
2022-12-22T11:33:18.413Z,97234.31
2022-12-22T11:37:34.136Z,97233.78
2022-12-22T11:41:51.254Z,97221.53
2022-12-22T11:46:11.828Z,97218.56
2022-12-22T11:50:58.466Z,97220.47
2022-12-22T11:55:16.833Z,97177.28
2022-12-22T11:59:40.710Z,97166.81
2022-12-22T12:04:25.474Z,97160.97
2022-12-22T12:08:41.271Z,97145.50
2022-12-22T12:12:53.940Z,97149.28
2022-12-22T12:17:00.380Z,97140.88
2022-12-22T12:21:21.866Z,97140.47
2022-12-22T12:25:31.814Z,97131.91
2022-12-22T12:29:42.136Z,97128.94
2022-12-22T12:33:49.716Z,97135.44
2022-12-22T12:37:59.228Z,97136.66
2022-12-22T12:42:15.101Z,97145.63
2022-12-22T12:46:56.104Z,97149.28
2022-12-22T12:51:00.175Z,97143.56
2022-12-22T12:55:31.688Z,97149.81
2022-12-22T12:59:51.648Z,97149.69
2022-12-22T13:04:04.587Z,97149.50
2022-12-22T13:08:27.386Z,97159.53
2022-12-22T13:12:41.291Z,97177.63
2022-12-22T13:16:46.438Z,97163.84
2022-12-22T13:21:18.677Z,97188.56
2022-12-22T13:25:22.543Z,97185.50
2022-12-22T13:29:31.175Z,97197.59
2022-12-22T13:33:40.811Z,97193.41
2022-12-22T13:37:48.185Z,97203.19
2022-12-22T13:41:52.795Z,97219.25
2022-12-22T13:45:58.269Z,97225.66
2022-12-22T13:50:10.650Z,97221.47
2022-12-22T13:54:18.730Z,97241.06
2022-12-22T13:58:29.556Z,97250.06
2022-12-22T14:02:34.907Z,97253.88
2022-12-22T14:06:43.089Z,97268.03
2022-12-22T14:10:47.212Z,97257.41
2022-12-22T14:14:53.362Z,97240.69
2022-12-22T14:18:57.103Z,97235.41
2022-12-22T14:23:07.743Z,97225.63
2022-12-22T14:27:20.405Z,97205.38
2022-12-22T14:31:27.179Z,97212.31
2022-12-22T14:35:31.884Z,97217.47
2022-12-22T14:39:36.818Z,97214.59
2022-12-22T14:43:40.708Z,97210.13
2022-12-22T14:47:44.275Z,97212.59
2022-12-22T14:52:01.124Z,97205.53
2022-12-22T14:56:12.524Z,97207.94
2022-12-22T15:00:32.471Z,97213.88
2022-12-22T15:04:35.990Z,97207.97
2022-12-22T15:08:40.647Z,97197.06
2022-12-22T15:12:46.261Z,97212.84
2022-12-22T15:16:51.318Z,97205.03
2022-12-22T15:20:55.641Z,97226.59
2022-12-22T15:24:59.263Z,97201.47
2022-12-22T15:29:04.275Z,97208.56
2022-12-22T15:33:14.370Z,97221.66
2022-12-22T15:37:18.071Z,97235.59
2022-12-22T15:41:21.963Z,97207.63
2022-12-22T15:45:27.457Z,97199.50
2022-12-22T15:49:33.050Z,97208.34
2022-12-22T15:53:38.696Z,97213.44
2022-12-22T15:57:42.350Z,97220.88
2022-12-22T16:01:56.615Z,97203.78
2022-12-22T16:06:03.927Z,97193.50
2022-12-22T16:10:10.483Z,97184.53
2022-12-22T16:14:15.364Z,97190.56
2022-12-22T16:18:20.444Z,97186.56
2022-12-22T16:22:32.564Z,97201.44
2022-12-22T16:26:36.140Z,97205.13
2022-12-22T16:30:41.578Z,97223.13
2022-12-22T16:34:46.818Z,97240.53
2022-12-22T16:38:52.183Z,97237.56
2022-12-22T16:47:26.641Z,97222.78
2022-12-22T16:51:34.842Z,97224.00
2022-12-22T16:55:38.552Z,97215.56
2022-12-22T16:59:42.309Z,97210.41
2022-12-22T17:03:46.186Z,97208.50
2022-12-22T17:07:51.831Z,97208.06
2022-12-22T17:11:56.830Z,97201.69
2022-12-22T17:16:01.878Z,97199.31
2022-12-22T17:20:06.563Z,97199.63
2022-12-22T17:24:16.987Z,97189.84
2022-12-22T17:28:20.751Z,97197.03
2022-12-22T17:32:24.386Z,97193.69
2022-12-22T17:36:33.839Z,97200.09
2022-12-22T17:40:38.975Z,97202.94
2022-12-22T17:48:52.194Z,97201.94
2022-12-22T17:52:55.997Z,97196.94
2022-12-22T17:57:03.419Z,97200.69
2022-12-22T18:01:07.147Z,97209.66
2022-12-22T18:05:15.567Z,97236.59
2022-12-22T18:09:22.833Z,97235.63
2022-12-22T18:13:28.139Z,97220.00
2022-12-22T18:17:35.995Z,97230.19
2022-12-22T18:21:40.089Z,97224.44
2022-12-22T18:25:44.040Z,97227.91
2022-12-22T18:29:49.290Z,97233.03
2022-12-22T18:33:53.172Z,97245.25
2022-12-22T18:37:56.916Z,97244.22
2022-12-22T18:42:01.050Z,97255.47
2022-12-22T18:46:08.117Z,97250.81
2022-12-22T18:50:18.179Z,97248.16
2022-12-22T18:54:26.057Z,97254.75
2022-12-22T18:58:30.076Z,97248.22
2022-12-22T19:02:35.060Z,97252.88
2022-12-22T19:06:42.432Z,97254.56
2022-12-22T19:10:48.821Z,97253.53
2022-12-22T19:14:56.990Z,97250.03
2022-12-22T19:19:02.975Z,97248.53
2022-12-22T19:23:17.529Z,97253.88
2022-12-22T19:27:24.663Z,97258.06
2022-12-22T19:31:32.078Z,97245.13
2022-12-22T19:35:38.747Z,97245.13
2022-12-22T19:39:43.060Z,97239.97
2022-12-22T19:43:47.876Z,97233.81
2022-12-22T19:48:00.533Z,97238.84
2022-12-22T19:52:06.864Z,97231.78
2022-12-22T19:56:23.157Z,97225.78
2022-12-22T20:00:28.972Z,97215.41
2022-12-22T20:04:32.657Z,97224.81
2022-12-22T20:08:44.753Z,97211.56
2022-12-22T20:12:50.482Z,97204.50
2022-12-22T20:16:54.591Z,97204.22
2022-12-22T20:21:04.339Z,97198.59
2022-12-22T20:25:15.292Z,97199.09
2022-12-22T20:29:19.633Z,97199.50
2022-12-22T20:33:25.414Z,97193.41
2022-12-22T20:37:32.730Z,97200.69
2022-12-22T20:41:38.792Z,97194.88
2022-12-22T20:45:43.695Z,97198.69
2022-12-22T20:49:49.655Z,97199.41
2022-12-22T20:53:54.105Z,97206.00
2022-12-22T20:58:01.790Z,97189.84
2022-12-22T21:02:05.914Z,97189.06
2022-12-22T21:06:23.953Z,97177.75
2022-12-22T21:10:29.002Z,97165.72
2022-12-22T21:14:34.190Z,97162.66
2022-12-22T21:18:37.886Z,97169.72
2022-12-22T21:22:41.473Z,97175.66
2022-12-22T21:26:47.761Z,97179.13
2022-12-22T21:30:52.992Z,97166.56
2022-12-22T21:34:58.242Z,97181.47
2022-12-22T21:39:07.703Z,97174.94
2022-12-22T21:43:12.798Z,97173.63
2022-12-22T21:47:21.291Z,97185.09
2022-12-22T21:51:24.669Z,97173.06
2022-12-22T21:55:30.993Z,97167.63
2022-12-22T21:59:34.356Z,97164.34
2022-12-22T22:03:39.357Z,97151.03
2022-12-22T22:07:42.728Z,97157.47
2022-12-22T22:12:03.903Z,97157.56
2022-12-22T22:16:09.646Z,97156.72
2022-12-22T22:20:17.828Z,97152.03
2022-12-22T22:24:21.818Z,97153.16
2022-12-22T22:28:25.077Z,97146.41
2022-12-22T22:32:28.658Z,97141.94
2022-12-22T22:36:33.388Z,97129.59
2022-12-22T22:40:36.923Z,97126.59
2022-12-22T22:44:40.771Z,97119.00
2022-12-22T22:48:44.021Z,97116.28
2022-12-22T22:52:49.274Z,97110.00
2022-12-22T22:56:53.107Z,97116.28
2022-12-22T23:00:56.605Z,97116.84
2022-12-22T23:04:59.941Z,97108.72
2022-12-22T23:09:05.298Z,97078.84
2022-12-22T23:13:08.570Z,97088.88
2022-12-22T23:17:12.234Z,97083.34
2022-12-22T23:21:15.984Z,97079.41
2022-12-22T23:25:23.444Z,97072.31
2022-12-22T23:29:26.997Z,97072.06
2022-12-22T23:33:32.357Z,97069.88
2022-12-22T23:37:36.083Z,97071.22
2022-12-22T23:41:40.935Z,97065.50
2022-12-22T23:45:44.652Z,97068.84
2022-12-22T23:49:47.929Z,97061.88
2022-12-22T23:53:51.541Z,97061.81
2022-12-22T23:57:56.181Z,97053.19
